sensor_id;sensor_type;location;lat;lon;timestamp;P1;durP1;ratioP1;P2;durP2;ratioP2
13457;SDS011;6801;53.018;11.560;2022-10-30T00:00:03;10.18;;;7.72;;
13457;SDS011;6801;53.018;11.560;2022-10-30T00:02:37;14.32;;;10.13;;
13457;SDS011;6801;53.018;11.560;2022-10-30T00:05:05;17.33;;;11.27;;
13457;SDS011;6801;53.018;11.560;2022-10-30T00:07:33;19.27;;;10.35;;
13457;SDS011;6801;53.018;11.560;2022-10-30T00:10:00;12.65;;;9.85;;
13457;SDS011;6801;53.018;11.560;2022-10-30T00:12:28;14.15;;;9.48;;
13457;SDS011;6801;53.018;11.560;2022-10-30T00:14:55;16.08;;;10.05;;
13457;SDS011;6801;53.018;11.560;2022-10-30T00:17:22;21.20;;;9.57;;
13457;SDS011;6801;53.018;11.560;2022-10-30T00:19:49;26.65;;;9.50;;
13457;SDS011;6801;53.018;11.560;2022-10-30T00:22:16;26.80;;;9.27;;
13457;SDS011;6801;53.018;11.560;2022-10-30T00:24:43;18.55;;;9.43;;
13457;SDS011;6801;53.018;11.560;2022-10-30T00:27:10;17.75;;;9.23;;
13457;SDS011;6801;53.018;11.560;2022-10-30T00:29:39;12.32;;;7.28;;
13457;SDS011;6801;53.018;11.560;2022-10-30T00:32:06;13.32;;;6.88;;
13457;SDS011;6801;53.018;11.560;2022-10-30T00:34:34;13.52;;;7.80;;
13457;SDS011;6801;53.018;11.560;2022-10-30T00:37:01;14.60;;;7.72;;
13457;SDS011;6801;53.018;11.560;2022-10-30T00:39:28;13.20;;;7.68;;
13457;SDS011;6801;53.018;11.560;2022-10-30T00:41:55;8.80;;;5.55;;
13457;SDS011;6801;53.018;11.560;2022-10-30T00:44:32;9.95;;;5.97;;
13457;SDS011;6801;53.018;11.560;2022-10-30T00:47:03;11.18;;;7.22;;
13457;SDS011;6801;53.018;11.560;2022-10-30T00:52:01;13.30;;;8.70;;
13457;SDS011;6801;53.018;11.560;2022-10-30T00:54:30;11.90;;;8.60;;
13457;SDS011;6801;53.018;11.560;2022-10-30T00:56:59;17.27;;;9.20;;
13457;SDS011;6801;53.018;11.560;2022-10-30T00:59:29;20.48;;;9.23;;
13457;SDS011;6801;53.018;11.560;2022-10-30T01:01:58;15.98;;;9.02;;
13457;SDS011;6801;53.018;11.560;2022-10-30T01:04:29;13.82;;;8.70;;
13457;SDS011;6801;53.018;11.560;2022-10-30T01:06:59;17.35;;;9.07;;
13457;SDS011;6801;53.018;11.560;2022-10-30T01:09:31;23.98;;;8.60;;
13457;SDS011;6801;53.018;11.560;2022-10-30T01:11:59;21.98;;;9.02;;
13457;SDS011;6801;53.018;11.560;2022-10-30T01:14:26;13.05;;;9.65;;
13457;SDS011;6801;53.018;11.560;2022-10-30T01:16:56;20.77;;;10.02;;
13457;SDS011;6801;53.018;11.560;2022-10-30T01:19:40;13.32;;;9.35;;
13457;SDS011;6801;53.018;11.560;2022-10-30T01:22:18;15.98;;;8.88;;
13457;SDS011;6801;53.018;11.560;2022-10-30T01:25:07;15.50;;;8.98;;
13457;SDS011;6801;53.018;11.560;2022-10-30T01:27:57;19.90;;;9.75;;
13457;SDS011;6801;53.018;11.560;2022-10-30T01:30:32;13.25;;;9.18;;
13457;SDS011;6801;53.018;11.560;2022-10-30T01:33:12;14.40;;;9.73;;
13457;SDS011;6801;53.018;11.560;2022-10-30T01:35:51;15.57;;;8.82;;
13457;SDS011;6801;53.018;11.560;2022-10-30T01:38:22;8.90;;;5.95;;
13457;SDS011;6801;53.018;11.560;2022-10-30T01:40:54;13.40;;;7.57;;
13457;SDS011;6801;53.018;11.560;2022-10-30T01:43:22;12.75;;;8.18;;
13457;SDS011;6801;53.018;11.560;2022-10-30T01:45:57;9.63;;;6.72;;
13457;SDS011;6801;53.018;11.560;2022-10-30T01:51:37;13.45;;;9.43;;
13457;SDS011;6801;53.018;11.560;2022-10-30T01:54:14;14.25;;;9.65;;
13457;SDS011;6801;53.018;11.560;2022-10-30T01:56:58;14.80;;;9.88;;
13457;SDS011;6801;53.018;11.560;2022-10-30T01:59:30;11.93;;;8.85;;
13457;SDS011;6801;53.018;11.560;2022-10-30T02:02:01;11.38;;;8.63;;
13457;SDS011;6801;53.018;11.560;2022-10-30T02:04:30;14.23;;;9.73;;
13457;SDS011;6801;53.018;11.560;2022-10-30T02:06:58;9.98;;;6.85;;
13457;SDS011;6801;53.018;11.560;2022-10-30T02:09:26;8.00;;;6.32;;
13457;SDS011;6801;53.018;11.560;2022-10-30T02:11:54;10.15;;;6.50;;
13457;SDS011;6801;53.018;11.560;2022-10-30T02:14:22;14.02;;;8.45;;
13457;SDS011;6801;53.018;11.560;2022-10-30T02:16:53;13.70;;;8.40;;
13457;SDS011;6801;53.018;11.560;2022-10-30T02:21:53;16.15;;;10.00;;
13457;SDS011;6801;53.018;11.560;2022-10-30T02:24:20;15.13;;;9.15;;
13457;SDS011;6801;53.018;11.560;2022-10-30T02:26:47;9.43;;;7.20;;
13457;SDS011;6801;53.018;11.560;2022-10-30T02:29:14;14.80;;;9.48;;
13457;SDS011;6801;53.018;11.560;2022-10-30T02:31:44;12.10;;;9.50;;
13457;SDS011;6801;53.018;11.560;2022-10-30T02:34:11;12.40;;;9.05;;
13457;SDS011;6801;53.018;11.560;2022-10-30T02:36:38;13.00;;;8.23;;
13457;SDS011;6801;53.018;11.560;2022-10-30T02:39:07;10.95;;;7.85;;
13457;SDS011;6801;53.018;11.560;2022-10-30T02:41:35;14.32;;;8.68;;
13457;SDS011;6801;53.018;11.560;2022-10-30T02:44:02;10.80;;;8.32;;
13457;SDS011;6801;53.018;11.560;2022-10-30T02:46:29;11.35;;;8.00;;
13457;SDS011;6801;53.018;11.560;2022-10-30T02:48:56;13.60;;;8.10;;
13457;SDS011;6801;53.018;11.560;2022-10-30T02:51:23;14.70;;;8.88;;
13457;SDS011;6801;53.018;11.560;2022-10-30T02:53:50;10.57;;;8.50;;
13457;SDS011;6801;53.018;11.560;2022-10-30T02:56:19;15.93;;;9.88;;
13457;SDS011;6801;53.018;11.560;2022-10-30T02:58:46;15.45;;;9.82;;
13457;SDS011;6801;53.018;11.560;2022-10-30T03:01:13;14.23;;;9.50;;
13457;SDS011;6801;53.018;11.560;2022-10-30T03:03:42;13.90;;;9.02;;
13457;SDS011;6801;53.018;11.560;2022-10-30T03:06:10;17.50;;;10.55;;
13457;SDS011;6801;53.018;11.560;2022-10-30T03:08:39;14.68;;;9.70;;
13457;SDS011;6801;53.018;11.560;2022-10-30T03:11:07;14.02;;;9.23;;
13457;SDS011;6801;53.018;11.560;2022-10-30T03:13:37;17.35;;;9.88;;
13457;SDS011;6801;53.018;11.560;2022-10-30T03:16:06;17.73;;;10.23;;
13457;SDS011;6801;53.018;11.560;2022-10-30T03:18:34;14.90;;;9.40;;
13457;SDS011;6801;53.018;11.560;2022-10-30T03:21:07;14.13;;;9.70;;
13457;SDS011;6801;53.018;11.560;2022-10-30T03:23:35;13.60;;;8.48;;
13457;SDS011;6801;53.018;11.560;2022-10-30T03:26:03;16.00;;;10.02;;
13457;SDS011;6801;53.018;11.560;2022-10-30T03:28:34;16.08;;;10.10;;
13457;SDS011;6801;53.018;11.560;2022-10-30T03:31:05;17.40;;;9.48;;
13457;SDS011;6801;53.018;11.560;2022-10-30T03:33:33;17.02;;;10.35;;
13457;SDS011;6801;53.018;11.560;2022-10-30T03:36:01;15.93;;;9.05;;
13457;SDS011;6801;53.018;11.560;2022-10-30T03:38:29;14.88;;;10.02;;
13457;SDS011;6801;53.018;11.560;2022-10-30T03:40:57;16.77;;;9.30;;
13457;SDS011;6801;53.018;11.560;2022-10-30T03:43:24;19.20;;;9.73;;
13457;SDS011;6801;53.018;11.560;2022-10-30T03:45:52;19.35;;;9.40;;
13457;SDS011;6801;53.018;11.560;2022-10-30T03:48:22;13.70;;;9.02;;
13457;SDS011;6801;53.018;11.560;2022-10-30T03:50:51;18.52;;;9.27;;
13457;SDS011;6801;53.018;11.560;2022-10-30T03:53:18;14.57;;;8.32;;
13457;SDS011;6801;53.018;11.560;2022-10-30T03:55:50;13.05;;;8.70;;
13457;SDS011;6801;53.018;11.560;2022-10-30T03:58:17;17.33;;;8.70;;
13457;SDS011;6801;53.018;11.560;2022-10-30T04:00:44;15.13;;;9.32;;
13457;SDS011;6801;53.018;11.560;2022-10-30T04:03:11;15.32;;;9.65;;
13457;SDS011;6801;53.018;11.560;2022-10-30T04:05:42;17.75;;;8.88;;
13457;SDS011;6801;53.018;11.560;2022-10-30T04:08:09;13.98;;;9.68;;
13457;SDS011;6801;53.018;11.560;2022-10-30T04:10:40;13.23;;;8.23;;
13457;SDS011;6801;53.018;11.560;2022-10-30T04:13:10;14.50;;;7.15;;
13457;SDS011;6801;53.018;11.560;2022-10-30T04:15:45;13.00;;;7.90;;
13457;SDS011;6801;53.018;11.560;2022-10-30T04:18:13;13.52;;;8.75;;
13457;SDS011;6801;53.018;11.560;2022-10-30T04:20:43;12.70;;;7.60;;
13457;SDS011;6801;53.018;11.560;2022-10-30T04:23:12;11.18;;;6.43;;
13457;SDS011;6801;53.018;11.560;2022-10-30T04:25:40;15.27;;;8.20;;
13457;SDS011;6801;53.018;11.560;2022-10-30T04:28:08;14.63;;;9.27;;
13457;SDS011;6801;53.018;11.560;2022-10-30T04:30:36;19.77;;;9.20;;
13457;SDS011;6801;53.018;11.560;2022-10-30T04:33:05;16.63;;;10.40;;
13457;SDS011;6801;53.018;11.560;2022-10-30T04:35:35;15.10;;;9.30;;
13457;SDS011;6801;53.018;11.560;2022-10-30T04:38:07;15.23;;;9.25;;
13457;SDS011;6801;53.018;11.560;2022-10-30T04:40:36;13.93;;;8.73;;
13457;SDS011;6801;53.018;11.560;2022-10-30T04:43:05;15.32;;;9.20;;
13457;SDS011;6801;53.018;11.560;2022-10-30T04:45:34;14.93;;;9.07;;
13457;SDS011;6801;53.018;11.560;2022-10-30T04:48:04;19.15;;;8.60;;
13457;SDS011;6801;53.018;11.560;2022-10-30T04:50:32;14.13;;;8.82;;
13457;SDS011;6801;53.018;11.560;2022-10-30T04:53:00;18.60;;;8.82;;
13457;SDS011;6801;53.018;11.560;2022-10-30T04:55:30;16.73;;;9.60;;
13457;SDS011;6801;53.018;11.560;2022-10-30T04:57:57;20.00;;;9.38;;
13457;SDS011;6801;53.018;11.560;2022-10-30T05:00:28;17.52;;;8.48;;
13457;SDS011;6801;53.018;11.560;2022-10-30T05:03:04;15.65;;;9.10;;
13457;SDS011;6801;53.018;11.560;2022-10-30T05:05:31;13.30;;;8.15;;
13457;SDS011;6801;53.018;11.560;2022-10-30T05:07:58;15.23;;;9.18;;
13457;SDS011;6801;53.018;11.560;2022-10-30T05:10:25;17.55;;;9.27;;
13457;SDS011;6801;53.018;11.560;2022-10-30T05:12:54;10.27;;;6.90;;
13457;SDS011;6801;53.018;11.560;2022-10-30T05:15:21;12.18;;;7.68;;
13457;SDS011;6801;53.018;11.560;2022-10-30T05:17:49;11.73;;;7.10;;
13457;SDS011;6801;53.018;11.560;2022-10-30T05:20:18;11.35;;;6.85;;
13457;SDS011;6801;53.018;11.560;2022-10-30T05:22:45;9.50;;;6.57;;
13457;SDS011;6801;53.018;11.560;2022-10-30T05:25:18;10.75;;;7.38;;
13457;SDS011;6801;53.018;11.560;2022-10-30T05:27:45;9.98;;;6.07;;
13457;SDS011;6801;53.018;11.560;2022-10-30T05:30:14;7.05;;;5.18;;
13457;SDS011;6801;53.018;11.560;2022-10-30T05:32:41;6.55;;;4.60;;
13457;SDS011;6801;53.018;11.560;2022-10-30T05:35:09;10.65;;;5.60;;
13457;SDS011;6801;53.018;11.560;2022-10-30T05:37:36;10.85;;;6.53;;
13457;SDS011;6801;53.018;11.560;2022-10-30T05:40:03;8.52;;;6.15;;
13457;SDS011;6801;53.018;11.560;2022-10-30T05:42:31;9.82;;;5.88;;
13457;SDS011;6801;53.018;11.560;2022-10-30T05:45:02;7.72;;;4.90;;
13457;SDS011;6801;53.018;11.560;2022-10-30T05:47:34;9.52;;;5.65;;
13457;SDS011;6801;53.018;11.560;2022-10-30T05:50:01;8.75;;;6.15;;
13457;SDS011;6801;53.018;11.560;2022-10-30T05:52:29;13.25;;;6.45;;
13457;SDS011;6801;53.018;11.560;2022-10-30T05:54:57;9.95;;;6.20;;
13457;SDS011;6801;53.018;11.560;2022-10-30T05:57:41;14.27;;;8.23;;
13457;SDS011;6801;53.018;11.560;2022-10-30T06:00:09;10.35;;;5.88;;
13457;SDS011;6801;53.018;11.560;2022-10-30T06:02:41;9.50;;;5.55;;
13457;SDS011;6801;53.018;11.560;2022-10-30T06:05:10;8.00;;;5.15;;
13457;SDS011;6801;53.018;11.560;2022-10-30T06:07:38;8.35;;;5.30;;
13457;SDS011;6801;53.018;11.560;2022-10-30T06:10:05;6.75;;;4.88;;
13457;SDS011;6801;53.018;11.560;2022-10-30T06:12:50;6.72;;;4.28;;
13457;SDS011;6801;53.018;11.560;2022-10-30T06:15:38;6.72;;;4.07;;
13457;SDS011;6801;53.018;11.560;2022-10-30T06:18:07;16.48;;;4.75;;
13457;SDS011;6801;53.018;11.560;2022-10-30T06:20:43;8.23;;;5.03;;
13457;SDS011;6801;53.018;11.560;2022-10-30T06:23:42;8.63;;;5.20;;
13457;SDS011;6801;53.018;11.560;2022-10-30T06:26:25;10.32;;;5.55;;
13457;SDS011;6801;53.018;11.560;2022-10-30T06:28:56;15.88;;;6.78;;
13457;SDS011;6801;53.018;11.560;2022-10-30T06:31:23;12.45;;;5.90;;
13457;SDS011;6801;53.018;11.560;2022-10-30T06:33:51;9.98;;;6.43;;
13457;SDS011;6801;53.018;11.560;2022-10-30T06:36:18;8.73;;;5.75;;
13457;SDS011;6801;53.018;11.560;2022-10-30T06:38:45;7.32;;;4.47;;
13457;SDS011;6801;53.018;11.560;2022-10-30T06:41:15;7.63;;;4.85;;
13457;SDS011;6801;53.018;11.560;2022-10-30T06:44:00;11.20;;;5.20;;
13457;SDS011;6801;53.018;11.560;2022-10-30T06:46:29;9.10;;;5.43;;
13457;SDS011;6801;53.018;11.560;2022-10-30T06:48:58;8.38;;;5.60;;
13457;SDS011;6801;53.018;11.560;2022-10-30T06:51:25;7.00;;;4.97;;
13457;SDS011;6801;53.018;11.560;2022-10-30T06:53:52;7.28;;;5.63;;
13457;SDS011;6801;53.018;11.560;2022-10-30T06:56:40;8.38;;;5.05;;
13457;SDS011;6801;53.018;11.560;2022-10-30T06:59:28;9.10;;;5.60;;
13457;SDS011;6801;53.018;11.560;2022-10-30T07:02:08;10.23;;;6.27;;
13457;SDS011;6801;53.018;11.560;2022-10-30T07:04:59;14.50;;;6.00;;
13457;SDS011;6801;53.018;11.560;2022-10-30T07:07:26;12.52;;;5.13;;
13457;SDS011;6801;53.018;11.560;2022-10-30T07:09:53;9.48;;;5.32;;
13457;SDS011;6801;53.018;11.560;2022-10-30T07:12:30;8.02;;;4.55;;
13457;SDS011;6801;53.018;11.560;2022-10-30T07:15:05;12.98;;;7.10;;
13457;SDS011;6801;53.018;11.560;2022-10-30T07:17:38;8.60;;;5.20;;
13457;SDS011;6801;53.018;11.560;2022-10-30T07:20:14;10.85;;;4.85;;
13457;SDS011;6801;53.018;11.560;2022-10-30T07:22:41;8.45;;;3.95;;
13457;SDS011;6801;53.018;11.560;2022-10-30T07:25:08;7.88;;;4.40;;
13457;SDS011;6801;53.018;11.560;2022-10-30T07:27:48;6.60;;;3.88;;
13457;SDS011;6801;53.018;11.560;2022-10-30T07:30:35;8.05;;;4.25;;
13457;SDS011;6801;53.018;11.560;2022-10-30T07:33:28;7.20;;;4.28;;
13457;SDS011;6801;53.018;11.560;2022-10-30T07:36:04;7.53;;;4.93;;
13457;SDS011;6801;53.018;11.560;2022-10-30T07:38:47;10.27;;;4.60;;
13457;SDS011;6801;53.018;11.560;2022-10-30T07:41:25;12.20;;;5.47;;
13457;SDS011;6801;53.018;11.560;2022-10-30T07:44:12;13.85;;;5.88;;
13457;SDS011;6801;53.018;11.560;2022-10-30T07:46:53;10.18;;;5.97;;
13457;SDS011;6801;53.018;11.560;2022-10-30T07:49:31;12.50;;;6.50;;
13457;SDS011;6801;53.018;11.560;2022-10-30T07:52:05;9.02;;;5.10;;
13457;SDS011;6801;53.018;11.560;2022-10-30T07:54:32;17.05;;;7.03;;
13457;SDS011;6801;53.018;11.560;2022-10-30T07:57:14;8.55;;;4.97;;
13457;SDS011;6801;53.018;11.560;2022-10-30T08:00:00;10.13;;;5.38;;
13457;SDS011;6801;53.018;11.560;2022-10-30T08:02:39;10.60;;;6.05;;
13457;SDS011;6801;53.018;11.560;2022-10-30T08:05:42;12.07;;;6.78;;
13457;SDS011;6801;53.018;11.560;2022-10-30T08:08:28;14.38;;;5.72;;
13457;SDS011;6801;53.018;11.560;2022-10-30T08:11:18;13.88;;;6.20;;
13457;SDS011;6801;53.018;11.560;2022-10-30T08:13:45;10.15;;;5.97;;
13457;SDS011;6801;53.018;11.560;2022-10-30T08:16:12;14.20;;;6.20;;
13457;SDS011;6801;53.018;11.560;2022-10-30T08:18:41;13.95;;;7.13;;
13457;SDS011;6801;53.018;11.560;2022-10-30T08:21:09;11.73;;;6.57;;
13457;SDS011;6801;53.018;11.560;2022-10-30T08:23:45;13.65;;;6.70;;
13457;SDS011;6801;53.018;11.560;2022-10-30T08:28:41;15.18;;;6.57;;
13457;SDS011;6801;53.018;11.560;2022-10-30T08:31:09;16.52;;;6.72;;
13457;SDS011;6801;53.018;11.560;2022-10-30T08:33:55;16.70;;;6.95;;
13457;SDS011;6801;53.018;11.560;2022-10-30T08:36:30;13.30;;;6.60;;
13457;SDS011;6801;53.018;11.560;2022-10-30T08:38:58;18.08;;;6.90;;
13457;SDS011;6801;53.018;11.560;2022-10-30T08:41:45;14.65;;;7.28;;
13457;SDS011;6801;53.018;11.560;2022-10-30T08:44:12;12.60;;;6.03;;
13457;SDS011;6801;53.018;11.560;2022-10-30T08:47:00;16.52;;;5.60;;
13457;SDS011;6801;53.018;11.560;2022-10-30T08:49:27;12.85;;;6.95;;
13457;SDS011;6801;53.018;11.560;2022-10-30T08:51:56;14.00;;;6.27;;
13457;SDS011;6801;53.018;11.560;2022-10-30T08:54:25;17.27;;;6.63;;
13457;SDS011;6801;53.018;11.560;2022-10-30T08:56:53;14.88;;;5.90;;
13457;SDS011;6801;53.018;11.560;2022-10-30T08:59:22;18.50;;;6.57;;
13457;SDS011;6801;53.018;11.560;2022-10-30T09:01:51;15.50;;;5.93;;
13457;SDS011;6801;53.018;11.560;2022-10-30T09:04:18;11.48;;;5.72;;
13457;SDS011;6801;53.018;11.560;2022-10-30T09:07:03;14.15;;;5.57;;
13457;SDS011;6801;53.018;11.560;2022-10-30T09:09:49;16.30;;;5.28;;
13457;SDS011;6801;53.018;11.560;2022-10-30T09:12:16;10.15;;;5.75;;
13457;SDS011;6801;53.018;11.560;2022-10-30T09:14:45;15.00;;;5.78;;
13457;SDS011;6801;53.018;11.560;2022-10-30T09:17:12;11.38;;;4.93;;
13457;SDS011;6801;53.018;11.560;2022-10-30T09:19:42;12.13;;;5.72;;
13457;SDS011;6801;53.018;11.560;2022-10-30T09:22:15;9.70;;;5.28;;
13457;SDS011;6801;53.018;11.560;2022-10-30T09:24:42;10.73;;;5.35;;
13457;SDS011;6801;53.018;11.560;2022-10-30T09:27:37;12.27;;;4.85;;
13457;SDS011;6801;53.018;11.560;2022-10-30T09:30:06;11.20;;;5.85;;
13457;SDS011;6801;53.018;11.560;2022-10-30T09:32:39;11.55;;;5.47;;
13457;SDS011;6801;53.018;11.560;2022-10-30T09:35:09;15.20;;;5.28;;
13457;SDS011;6801;53.018;11.560;2022-10-30T09:37:37;12.25;;;5.07;;
13457;SDS011;6801;53.018;11.560;2022-10-30T09:40:09;14.68;;;5.20;;
13457;SDS011;6801;53.018;11.560;2022-10-30T09:42:46;10.15;;;5.57;;
13457;SDS011;6801;53.018;11.560;2022-10-30T09:45:27;9.85;;;4.40;;
13457;SDS011;6801;53.018;11.560;2022-10-30T09:51:48;10.40;;;4.40;;
13457;SDS011;6801;53.018;11.560;2022-10-30T09:54:32;12.80;;;5.32;;
13457;SDS011;6801;53.018;11.560;2022-10-30T09:57:06;14.50;;;5.18;;
13457;SDS011;6801;53.018;11.560;2022-10-30T09:59:47;14.95;;;5.00;;
13457;SDS011;6801;53.018;11.560;2022-10-30T10:04:56;15.75;;;4.55;;
13457;SDS011;6801;53.018;11.560;2022-10-30T10:08:05;16.48;;;4.93;;
13457;SDS011;6801;53.018;11.560;2022-10-30T10:10:51;11.35;;;4.50;;
13457;SDS011;6801;53.018;11.560;2022-10-30T10:13:26;10.63;;;4.10;;
13457;SDS011;6801;53.018;11.560;2022-10-30T10:16:01;9.15;;;4.65;;
13457;SDS011;6801;53.018;11.560;2022-10-30T10:18:37;30.27;;;5.28;;
13457;SDS011;6801;53.018;11.560;2022-10-30T10:21:12;11.93;;;4.85;;
13457;SDS011;6801;53.018;11.560;2022-10-30T10:23:47;12.52;;;4.72;;
13457;SDS011;6801;53.018;11.560;2022-10-30T10:26:18;15.32;;;5.05;;
13457;SDS011;6801;53.018;11.560;2022-10-30T10:29:13;11.48;;;4.55;;
13457;SDS011;6801;53.018;11.560;2022-10-30T10:31:57;12.70;;;4.47;;
13457;SDS011;6801;53.018;11.560;2022-10-30T10:34:48;16.23;;;4.25;;
13457;SDS011;6801;53.018;11.560;2022-10-30T10:40:08;12.18;;;4.20;;
13457;SDS011;6801;53.018;11.560;2022-10-30T10:42:46;13.70;;;4.00;;
13457;SDS011;6801;53.018;11.560;2022-10-30T10:48:04;10.52;;;3.83;;
13457;SDS011;6801;53.018;11.560;2022-10-30T10:51:03;13.90;;;4.30;;
13457;SDS011;6801;53.018;11.560;2022-10-30T10:53:36;12.98;;;4.45;;
13457;SDS011;6801;53.018;11.560;2022-10-30T10:56:08;10.25;;;4.18;;
13457;SDS011;6801;53.018;11.560;2022-10-30T10:58:38;15.45;;;4.60;;
13457;SDS011;6801;53.018;11.560;2022-10-30T11:01:12;14.15;;;4.57;;
13457;SDS011;6801;53.018;11.560;2022-10-30T11:03:47;15.25;;;4.63;;
13457;SDS011;6801;53.018;11.560;2022-10-30T11:06:20;10.48;;;3.78;;
13457;SDS011;6801;53.018;11.560;2022-10-30T11:08:51;16.15;;;4.25;;
13457;SDS011;6801;53.018;11.560;2022-10-30T11:11:25;11.25;;;3.53;;
13457;SDS011;6801;53.018;11.560;2022-10-30T11:13:52;15.48;;;4.38;;
13457;SDS011;6801;53.018;11.560;2022-10-30T11:16:23;10.23;;;4.28;;
13457;SDS011;6801;53.018;11.560;2022-10-30T11:18:56;13.48;;;4.20;;
13457;SDS011;6801;53.018;11.560;2022-10-30T11:21:25;9.85;;;4.47;;
13457;SDS011;6801;53.018;11.560;2022-10-30T11:23:54;14.60;;;4.07;;
13457;SDS011;6801;53.018;11.560;2022-10-30T11:29:10;9.68;;;3.80;;
13457;SDS011;6801;53.018;11.560;2022-10-30T11:31:39;17.15;;;4.43;;
13457;SDS011;6801;53.018;11.560;2022-10-30T11:34:27;14.23;;;4.47;;
13457;SDS011;6801;53.018;11.560;2022-10-30T11:36:57;15.10;;;4.30;;
13457;SDS011;6801;53.018;11.560;2022-10-30T11:39:25;9.75;;;3.58;;
13457;SDS011;6801;53.018;11.560;2022-10-30T11:41:54;12.77;;;4.75;;
13457;SDS011;6801;53.018;11.560;2022-10-30T11:44:26;13.45;;;4.57;;
13457;SDS011;6801;53.018;11.560;2022-10-30T11:46:57;12.68;;;4.57;;
13457;SDS011;6801;53.018;11.560;2022-10-30T11:49:29;12.25;;;3.92;;
13457;SDS011;6801;53.018;11.560;2022-10-30T11:52:00;16.52;;;4.03;;
13457;SDS011;6801;53.018;11.560;2022-10-30T11:54:27;12.32;;;3.83;;
13457;SDS011;6801;53.018;11.560;2022-10-30T11:56:54;18.52;;;3.80;;
13457;SDS011;6801;53.018;11.560;2022-10-30T11:59:23;13.50;;;4.05;;
13457;SDS011;6801;53.018;11.560;2022-10-30T12:01:58;13.00;;;3.88;;
13457;SDS011;6801;53.018;11.560;2022-10-30T12:04:29;15.88;;;4.57;;
13457;SDS011;6801;53.018;11.560;2022-10-30T12:07:06;18.27;;;4.53;;
13457;SDS011;6801;53.018;11.560;2022-10-30T12:09:42;12.50;;;3.60;;
13457;SDS011;6801;53.018;11.560;2022-10-30T12:12:10;15.63;;;4.18;;
13457;SDS011;6801;53.018;11.560;2022-10-30T12:14:44;11.70;;;4.47;;
13457;SDS011;6801;53.018;11.560;2022-10-30T12:17:12;10.77;;;3.25;;
13457;SDS011;6801;53.018;11.560;2022-10-30T12:19:45;11.27;;;4.68;;
13457;SDS011;6801;53.018;11.560;2022-10-30T12:22:24;8.80;;;3.38;;
13457;SDS011;6801;53.018;11.560;2022-10-30T12:24:54;14.55;;;3.75;;
13457;SDS011;6801;53.018;11.560;2022-10-30T12:27:22;9.30;;;3.53;;
13457;SDS011;6801;53.018;11.560;2022-10-30T12:29:58;10.48;;;3.78;;
13457;SDS011;6801;53.018;11.560;2022-10-30T12:32:32;15.38;;;4.15;;
13457;SDS011;6801;53.018;11.560;2022-10-30T12:37:47;12.50;;;3.55;;
13457;SDS011;6801;53.018;11.560;2022-10-30T12:40:15;15.25;;;4.13;;
13457;SDS011;6801;53.018;11.560;2022-10-30T12:42:58;9.95;;;3.65;;
13457;SDS011;6801;53.018;11.560;2022-10-30T12:45:31;10.60;;;3.85;;
13457;SDS011;6801;53.018;11.560;2022-10-30T12:48:02;10.60;;;3.60;;
13457;SDS011;6801;53.018;11.560;2022-10-30T12:50:40;9.43;;;3.80;;
13457;SDS011;6801;53.018;11.560;2022-10-30T12:53:16;15.98;;;3.92;;
13457;SDS011;6801;53.018;11.560;2022-10-30T12:55:53;15.85;;;4.50;;
13457;SDS011;6801;53.018;11.560;2022-10-30T12:58:25;16.92;;;3.85;;
13457;SDS011;6801;53.018;11.560;2022-10-30T13:01:04;10.40;;;3.90;;
13457;SDS011;6801;53.018;11.560;2022-10-30T13:03:38;10.45;;;3.70;;
13457;SDS011;6801;53.018;11.560;2022-10-30T13:06:14;15.32;;;4.00;;
13457;SDS011;6801;53.018;11.560;2022-10-30T13:08:46;9.98;;;3.50;;
13457;SDS011;6801;53.018;11.560;2022-10-30T13:11:26;10.90;;;4.03;;
13457;SDS011;6801;53.018;11.560;2022-10-30T13:14:00;16.38;;;4.32;;
13457;SDS011;6801;53.018;11.560;2022-10-30T13:16:30;15.45;;;4.43;;
13457;SDS011;6801;53.018;11.560;2022-10-30T13:18:59;12.27;;;3.88;;
13457;SDS011;6801;53.018;11.560;2022-10-30T13:21:30;14.13;;;4.30;;
13457;SDS011;6801;53.018;11.560;2022-10-30T13:24:05;12.02;;;3.50;;
13457;SDS011;6801;53.018;11.560;2022-10-30T13:26:38;8.93;;;3.70;;
13457;SDS011;6801;53.018;11.560;2022-10-30T13:29:12;16.63;;;3.95;;
13457;SDS011;6801;53.018;11.560;2022-10-30T13:31:48;14.23;;;4.32;;
13457;SDS011;6801;53.018;11.560;2022-10-30T13:34:29;17.85;;;4.50;;
13457;SDS011;6801;53.018;11.560;2022-10-30T13:37:06;11.13;;;3.85;;
13457;SDS011;6801;53.018;11.560;2022-10-30T13:39:41;18.95;;;4.25;;
13457;SDS011;6801;53.018;11.560;2022-10-30T13:42:18;11.88;;;3.83;;
13457;SDS011;6801;53.018;11.560;2022-10-30T13:44:57;15.15;;;4.15;;
13457;SDS011;6801;53.018;11.560;2022-10-30T13:47:32;16.58;;;4.07;;
13457;SDS011;6801;53.018;11.560;2022-10-30T13:52:57;15.70;;;4.18;;
13457;SDS011;6801;53.018;11.560;2022-10-30T13:55:28;15.50;;;3.55;;
13457;SDS011;6801;53.018;11.560;2022-10-30T13:57:59;14.38;;;4.25;;
13457;SDS011;6801;53.018;11.560;2022-10-30T14:00:37;10.75;;;4.30;;
13457;SDS011;6801;53.018;11.560;2022-10-30T14:03:20;11.23;;;3.70;;
13457;SDS011;6801;53.018;11.560;2022-10-30T14:05:57;9.90;;;3.25;;
13457;SDS011;6801;53.018;11.560;2022-10-30T14:08:35;13.18;;;3.63;;
13457;SDS011;6801;53.018;11.560;2022-10-30T14:11:09;12.85;;;4.10;;
13457;SDS011;6801;53.018;11.560;2022-10-30T14:13:48;11.90;;;3.72;;
13457;SDS011;6801;53.018;11.560;2022-10-30T14:19:00;11.05;;;3.75;;
13457;SDS011;6801;53.018;11.560;2022-10-30T14:21:29;16.25;;;4.13;;
13457;SDS011;6801;53.018;11.560;2022-10-30T14:24:14;10.27;;;3.42;;
13457;SDS011;6801;53.018;11.560;2022-10-30T14:26:53;11.23;;;3.38;;
13457;SDS011;6801;53.018;11.560;2022-10-30T14:29:40;22.58;;;4.50;;
13457;SDS011;6801;53.018;11.560;2022-10-30T14:35:30;13.60;;;3.47;;
13457;SDS011;6801;53.018;11.560;2022-10-30T14:38:20;8.57;;;3.70;;
13457;SDS011;6801;53.018;11.560;2022-10-30T14:41:06;9.90;;;3.80;;
13457;SDS011;6801;53.018;11.560;2022-10-30T14:49:59;14.95;;;3.38;;
13457;SDS011;6801;53.018;11.560;2022-10-30T14:52:34;12.25;;;3.67;;
13457;SDS011;6801;53.018;11.560;2022-10-30T14:55:16;14.52;;;4.10;;
13457;SDS011;6801;53.018;11.560;2022-10-30T14:57:51;11.13;;;3.80;;
13457;SDS011;6801;53.018;11.560;2022-10-30T15:00:36;11.75;;;3.65;;
13457;SDS011;6801;53.018;11.560;2022-10-30T15:03:05;13.73;;;3.95;;
13457;SDS011;6801;53.018;11.560;2022-10-30T15:05:41;9.68;;;4.07;;
13457;SDS011;6801;53.018;11.560;2022-10-30T15:08:16;9.43;;;3.70;;
13457;SDS011;6801;53.018;11.560;2022-10-30T15:10:59;18.25;;;4.28;;
13457;SDS011;6801;53.018;11.560;2022-10-30T15:13:43;19.30;;;4.18;;
13457;SDS011;6801;53.018;11.560;2022-10-30T15:16:14;13.23;;;3.88;;
13457;SDS011;6801;53.018;11.560;2022-10-30T15:18:44;11.10;;;4.25;;
13457;SDS011;6801;53.018;11.560;2022-10-30T15:21:17;16.45;;;4.00;;
13457;SDS011;6801;53.018;11.560;2022-10-30T15:23:47;10.93;;;3.80;;
13457;SDS011;6801;53.018;11.560;2022-10-30T15:26:17;13.73;;;3.65;;
13457;SDS011;6801;53.018;11.560;2022-10-30T15:28:49;10.02;;;3.65;;
13457;SDS011;6801;53.018;11.560;2022-10-30T15:31:19;9.57;;;3.70;;
13457;SDS011;6801;53.018;11.560;2022-10-30T15:33:48;13.88;;;3.75;;
13457;SDS011;6801;53.018;11.560;2022-10-30T15:36:16;9.10;;;3.88;;
13457;SDS011;6801;53.018;11.560;2022-10-30T15:38:44;12.25;;;4.00;;
13457;SDS011;6801;53.018;11.560;2022-10-30T15:41:31;14.80;;;3.95;;
13457;SDS011;6801;53.018;11.560;2022-10-30T15:44:05;11.13;;;3.72;;
13457;SDS011;6801;53.018;11.560;2022-10-30T15:46:32;8.50;;;3.25;;
13457;SDS011;6801;53.018;11.560;2022-10-30T15:48:59;15.35;;;3.70;;
13457;SDS011;6801;53.018;11.560;2022-10-30T15:51:26;13.43;;;3.70;;